sensor_id;sensor_type;location;lat;lon;timestamp;pressure;altitude;pressure_sealevel;temperature;humidity
22582;BME280;47125;48.542;9.052;2023-07-31T00:09:11;96150.16;;;17.71;nan
22582;BME280;47125;48.542;9.052;2023-07-31T00:19:13;96150.41;;;17.75;nan
22582;BME280;47125;48.542;9.052;2023-07-31T00:29:18;96161.75;;;17.77;nan
22582;BME280;47125;48.542;9.052;2023-07-31T00:39:21;96160.94;;;17.76;nan
22582;BME280;47125;48.542;9.052;2023-07-31T00:49:25;96157.50;;;17.60;nan
22582;BME280;47125;48.542;9.052;2023-07-31T00:59:28;96147.78;;;17.54;nan
22582;BME280;47125;48.542;9.052;2023-07-31T01:09:34;96146.16;;;17.53;nan
22582;BME280;47125;48.542;9.052;2023-07-31T01:19:39;96130.06;;;17.33;nan
22582;BME280;47125;48.542;9.052;2023-07-31T01:29:45;96122.44;;;17.40;nan
22582;BME280;47125;48.542;9.052;2023-07-31T01:39:49;96107.13;;;17.26;nan
22582;BME280;47125;48.542;9.052;2023-07-31T01:49:55;96108.41;;;17.43;nan
22582;BME280;47125;48.542;9.052;2023-07-31T01:59:58;96104.66;;;17.39;nan
22582;BME280;47125;48.542;9.052;2023-07-31T02:10:01;96091.13;;;17.44;nan
22582;BME280;47125;48.542;9.052;2023-07-31T02:20:05;96071.97;;;17.41;nan
22582;BME280;47125;48.542;9.052;2023-07-31T02:30:09;96055.00;;;17.35;nan
22582;BME280;47125;48.542;9.052;2023-07-31T02:40:12;96069.84;;;17.33;nan
22582;BME280;47125;48.542;9.052;2023-07-31T02:50:16;96062.94;;;17.06;nan
22582;BME280;47125;48.542;9.052;2023-07-31T03:00:19;96062.16;;;17.01;nan
22582;BME280;47125;48.542;9.052;2023-07-31T03:10:23;96048.09;;;17.04;nan
22582;BME280;47125;48.542;9.052;2023-07-31T03:20:25;96044.84;;;17.07;nan
22582;BME280;47125;48.542;9.052;2023-07-31T03:30:29;96040.00;;;17.09;nan
22582;BME280;47125;48.542;9.052;2023-07-31T03:40:33;96052.50;;;16.90;nan
22582;BME280;47125;48.542;9.052;2023-07-31T03:50:37;96055.50;;;16.78;nan
22582;BME280;47125;48.542;9.052;2023-07-31T04:00:40;96058.69;;;16.90;nan
22582;BME280;47125;48.542;9.052;2023-07-31T04:10:44;96062.19;;;16.96;nan
22582;BME280;47125;48.542;9.052;2023-07-31T04:20:46;96045.22;;;16.85;nan
22582;BME280;47125;48.542;9.052;2023-07-31T04:30:50;96036.28;;;17.00;nan
22582;BME280;47125;48.542;9.052;2023-07-31T04:40:52;96050.81;;;17.04;nan
22582;BME280;47125;48.542;9.052;2023-07-31T04:50:56;96050.53;;;17.05;nan
22582;BME280;47125;48.542;9.052;2023-07-31T05:00:59;96051.09;;;16.97;nan
22582;BME280;47125;48.542;9.052;2023-07-31T05:11:03;96050.81;;;17.09;nan
22582;BME280;47125;48.542;9.052;2023-07-31T05:21:05;96051.56;;;17.20;nan
22582;BME280;47125;48.542;9.052;2023-07-31T05:31:09;96049.94;;;17.24;nan
22582;BME280;47125;48.542;9.052;2023-07-31T05:41:12;96059.66;;;17.20;nan
22582;BME280;47125;48.542;9.052;2023-07-31T05:51:16;96050.69;;;17.29;nan
22582;BME280;47125;48.542;9.052;2023-07-31T06:01:19;96052.50;;;17.44;nan
22582;BME280;47125;48.542;9.052;2023-07-31T06:11:23;96036.81;;;17.56;nan
22582;BME280;47125;48.542;9.052;2023-07-31T06:21:26;96043.28;;;17.50;nan
22582;BME280;47125;48.542;9.052;2023-07-31T06:31:30;96034.56;;;17.68;nan
22582;BME280;47125;48.542;9.052;2023-07-31T06:41:33;96047.50;;;17.71;nan
22582;BME280;47125;48.542;9.052;2023-07-31T06:51:36;96033.28;;;18.28;nan
22582;BME280;47125;48.542;9.052;2023-07-31T07:01:39;96048.91;;;18.65;nan
22582;BME280;47125;48.542;9.052;2023-07-31T07:11:43;96049.00;;;18.21;nan
22582;BME280;47125;48.542;9.052;2023-07-31T07:21:46;96049.00;;;18.21;nan
22582;BME280;47125;48.542;9.052;2023-07-31T07:31:50;96034.16;;;18.52;nan
22582;BME280;47125;48.542;9.052;2023-07-31T07:41:52;96034.50;;;18.41;nan
22582;BME280;47125;48.542;9.052;2023-07-31T07:51:56;96024.22;;;18.72;nan
22582;BME280;47125;48.542;9.052;2023-07-31T08:01:59;96020.97;;;18.93;nan
22582;BME280;47125;48.542;9.052;2023-07-31T08:12:03;95998.28;;;19.13;nan
22582;BME280;47125;48.542;9.052;2023-07-31T08:22:06;96003.75;;;19.26;nan
22582;BME280;47125;48.542;9.052;2023-07-31T08:32:10;96000.19;;;19.50;nan
22582;BME280;47125;48.542;9.052;2023-07-31T08:42:12;95992.50;;;19.94;nan
22582;BME280;47125;48.542;9.052;2023-07-31T08:52:16;95984.41;;;19.89;nan
22582;BME280;47125;48.542;9.052;2023-07-31T09:02:19;95989.22;;;20.11;nan
22582;BME280;47125;48.542;9.052;2023-07-31T09:12:23;95985.19;;;20.08;nan
22582;BME280;47125;48.542;9.052;2023-07-31T09:22:31;95964.91;;;20.38;nan
22582;BME280;47125;48.542;9.052;2023-07-31T09:32:37;95975.72;;;20.24;nan
22582;BME280;47125;48.542;9.052;2023-07-31T09:42:40;95950.41;;;20.29;nan
22582;BME280;47125;48.542;9.052;2023-07-31T09:52:44;95931.25;;;20.53;nan
22582;BME280;47125;48.542;9.052;2023-07-31T10:02:47;95916.53;;;20.95;nan
22582;BME280;47125;48.542;9.052;2023-07-31T10:12:52;95904.22;;;21.24;nan
22582;BME280;47125;48.542;9.052;2023-07-31T10:22:54;95888.56;;;21.43;nan
22582;BME280;47125;48.542;9.052;2023-07-31T10:32:59;95872.69;;;21.59;nan
22582;BME280;47125;48.542;9.052;2023-07-31T10:43:03;95878.47;;;21.66;nan
22582;BME280;47125;48.542;9.052;2023-07-31T10:53:07;95854.53;;;22.30;nan
22582;BME280;47125;48.542;9.052;2023-07-31T11:03:25;95857.88;;;22.27;nan
22582;BME280;47125;48.542;9.052;2023-07-31T11:13:29;95839.34;;;22.85;nan
22582;BME280;47125;48.542;9.052;2023-07-31T11:23:32;95852.00;;;22.98;nan
22582;BME280;47125;48.542;9.052;2023-07-31T11:33:36;95854.44;;;23.43;nan
22582;BME280;47125;48.542;9.052;2023-07-31T11:43:39;95851.31;;;22.76;nan
22582;BME280;47125;48.542;9.052;2023-07-31T11:53:43;95844.59;;;22.65;nan
22582;BME280;47125;48.542;9.052;2023-07-31T12:03:46;95827.88;;;22.10;nan
22582;BME280;47125;48.542;9.052;2023-07-31T12:13:50;95814.84;;;21.67;nan
22582;BME280;47125;48.542;9.052;2023-07-31T12:23:53;95792.94;;;21.64;nan
22582;BME280;47125;48.542;9.052;2023-07-31T12:33:58;95775.88;;;21.72;nan
22582;BME280;47125;48.542;9.052;2023-07-31T12:44:02;95778.31;;;22.13;nan
22582;BME280;47125;48.542;9.052;2023-07-31T12:54:06;95757.72;;;22.29;nan
22582;BME280;47125;48.542;9.052;2023-07-31T13:04:09;95735.25;;;22.23;nan
22582;BME280;47125;48.542;9.052;2023-07-31T13:14:13;95721.84;;;22.27;nan
22582;BME280;47125;48.542;9.052;2023-07-31T13:24:15;95722.28;;;22.20;nan
22582;BME280;47125;48.542;9.052;2023-07-31T13:34:19;95715.19;;;21.93;nan
22582;BME280;47125;48.542;9.052;2023-07-31T13:44:22;95733.63;;;21.66;nan
22582;BME280;47125;48.542;9.052;2023-07-31T13:54:26;95729.13;;;21.61;nan
22582;BME280;47125;48.542;9.052;2023-07-31T14:04:31;95715.69;;;21.56;nan
22582;BME280;47125;48.542;9.052;2023-07-31T14:14:35;95710.44;;;21.60;nan
22582;BME280;47125;48.542;9.052;2023-07-31T14:24:38;95713.16;;;21.60;nan
22582;BME280;47125;48.542;9.052;2023-07-31T14:34:42;95710.13;;;21.70;nan
22582;BME280;47125;48.542;9.052;2023-07-31T14:44:48;95694.38;;;21.50;nan
22582;BME280;47125;48.542;9.052;2023-07-31T14:54:52;95696.63;;;21.48;nan
22582;BME280;47125;48.542;9.052;2023-07-31T15:04:55;95682.88;;;21.44;nan
22582;BME280;47125;48.542;9.052;2023-07-31T15:14:59;95679.06;;;21.54;nan
22582;BME280;47125;48.542;9.052;2023-07-31T15:25:01;95662.63;;;21.67;nan
22582;BME280;47125;48.542;9.052;2023-07-31T15:35:06;95654.66;;;21.71;nan
22582;BME280;47125;48.542;9.052;2023-07-31T15:45:09;95616.78;;;21.74;nan
22582;BME280;47125;48.542;9.052;2023-07-31T15:55:13;95606.84;;;21.78;nan
22582;BME280;47125;48.542;9.052;2023-07-31T16:05:16;95609.28;;;21.80;nan
22582;BME280;47125;48.542;9.052;2023-07-31T16:15:20;95600.22;;;22.02;nan
22582;BME280;47125;48.542;9.052;2023-07-31T16:25:22;95586.16;;;22.17;nan
22582;BME280;47125;48.542;9.052;2023-07-31T16:35:26;95587.56;;;22.31;nan
22582;BME280;47125;48.542;9.052;2023-07-31T16:45:29;95563.41;;;22.13;nan
22582;BME280;47125;48.542;9.052;2023-07-31T16:55:33;95567.72;;;22.05;nan
22582;BME280;47125;48.542;9.052;2023-07-31T17:05:37;95549.66;;;22.01;nan
22582;BME280;47125;48.542;9.052;2023-07-31T17:15:41;95526.47;;;21.94;nan
22582;BME280;47125;48.542;9.052;2023-07-31T17:25:44;95524.84;;;21.93;nan
22582;BME280;47125;48.542;9.052;2023-07-31T17:35:48;95548.38;;;21.89;nan
22582;BME280;47125;48.542;9.052;2023-07-31T17:45:50;95525.81;;;21.89;nan
22582;BME280;47125;48.542;9.052;2023-07-31T17:55:54;95539.06;;;21.82;nan
22582;BME280;47125;48.542;9.052;2023-07-31T18:05:57;95529.97;;;21.78;nan
22582;BME280;47125;48.542;9.052;2023-07-31T18:16:01;95524.66;;;21.56;nan
22582;BME280;47125;48.542;9.052;2023-07-31T18:26:05;95532.63;;;21.52;nan
22582;BME280;47125;48.542;9.052;2023-07-31T18:36:09;95555.06;;;21.18;nan
22582;BME280;47125;48.542;9.052;2023-07-31T18:46:11;95534.19;;;20.57;nan
22582;BME280;47125;48.542;9.052;2023-07-31T18:56:16;95521.72;;;20.56;nan
22582;BME280;47125;48.542;9.052;2023-07-31T19:06:19;95518.50;;;20.46;nan
22582;BME280;47125;48.542;9.052;2023-07-31T19:16:23;95508.94;;;20.48;nan
22582;BME280;47125;48.542;9.052;2023-07-31T19:26:26;95507.31;;;20.25;nan
22582;BME280;47125;48.542;9.052;2023-07-31T19:36:30;95508.81;;;20.31;nan
22582;BME280;47125;48.542;9.052;2023-07-31T19:46:32;95508.19;;;20.34;nan
22582;BME280;47125;48.542;9.052;2023-07-31T19:56:37;95510.34;;;20.01;nan
22582;BME280;47125;48.542;9.052;2023-07-31T20:06:40;95508.44;;;20.02;nan
22582;BME280;47125;48.542;9.052;2023-07-31T20:16:44;95505.13;;;19.83;nan
22582;BME280;47125;48.542;9.052;2023-07-31T20:26:47;95476.91;;;19.84;nan
22582;BME280;47125;48.542;9.052;2023-07-31T20:36:50;95457.69;;;19.71;nan
22582;BME280;47125;48.542;9.052;2023-07-31T20:46:53;95447.41;;;19.82;nan
22582;BME280;47125;48.542;9.052;2023-07-31T20:56:57;95422.84;;;19.78;nan
22582;BME280;47125;48.542;9.052;2023-07-31T21:07:00;95419.13;;;19.74;nan
22582;BME280;47125;48.542;9.052;2023-07-31T21:17:05;95396.19;;;19.72;nan
22582;BME280;47125;48.542;9.052;2023-07-31T21:27:08;95376.53;;;19.66;nan
22582;BME280;47125;48.542;9.052;2023-07-31T21:37:12;95366.94;;;19.60;nan
22582;BME280;47125;48.542;9.052;2023-07-31T21:47:15;95347.00;;;19.56;nan
22582;BME280;47125;48.542;9.052;2023-07-31T21:57:19;95324.78;;;19.46;nan
22582;BME280;47125;48.542;9.052;2023-07-31T22:07:22;95308.97;;;19.61;nan
22582;BME280;47125;48.542;9.052;2023-07-31T22:17:26;95291.34;;;19.28;nan
22582;BME280;47125;48.542;9.052;2023-07-31T22:27:29;95282.00;;;19.12;nan
22582;BME280;47125;48.542;9.052;2023-07-31T22:37:32;95265.28;;;19.10;nan
22582;BME280;47125;48.542;9.052;2023-07-31T22:47:35;95254.06;;;19.25;nan
22582;BME280;47125;48.542;9.052;2023-07-31T22:57:39;95234.75;;;19.18;nan
22582;BME280;47125;48.542;9.052;2023-07-31T23:07:42;95214.13;;;19.31;nan
22582;BME280;47125;48.542;9.052;2023-07-31T23:17:46;95195.13;;;19.22;nan
22582;BME280;47125;48.542;9.052;2023-07-31T23:27:48;95189.38;;;19.46;nan
22582;BME280;47125;48.542;9.052;2023-07-31T23:37:52;95176.88;;;19.36;nan
22582;BME280;47125;48.542;9.052;2023-07-31T23:47:55;95174.16;;;19.36;nan
22582;BME280;47125;48.542;9.052;2023-07-31T23:57:59;95154.19;;;19.46;nan
